createdAt,value
2023-03-03T00:02:12.963Z,1.14
2023-03-03T00:07:21.623Z,0.84
2023-03-03T00:12:25.816Z,1.08
2023-03-03T00:17:30.342Z,0.98
2023-03-03T00:22:36.685Z,0.97
2023-03-03T00:27:38.222Z,1.17
2023-03-03T00:32:50.358Z,1.01
2023-03-03T00:37:56.128Z,1.07
2023-03-03T00:43:00.392Z,1.03
2023-03-03T00:48:19.301Z,1.10
2023-03-03T00:53:23.641Z,1.25
2023-03-03T00:58:25.656Z,1.01
2023-03-03T01:03:28.060Z,1.16
2023-03-03T01:08:29.734Z,1.32
2023-03-03T01:13:36.173Z,1.18
2023-03-03T01:18:41.796Z,1.15
2023-03-03T01:23:43.513Z,1.22
2023-03-03T01:28:45.078Z,0.95
2023-03-03T01:33:46.730Z,1.12
2023-03-03T01:38:48.309Z,1.35
2023-03-03T01:43:50.542Z,1.33
2023-03-03T01:48:56.221Z,1.29
2023-03-03T01:54:01.176Z,1.58
2023-03-03T01:59:07.373Z,1.22
2023-03-03T02:04:11.901Z,0.99
2023-03-03T02:09:44.087Z,0.84
2023-03-03T02:14:45.616Z,0.78
2023-03-03T02:20:14.768Z,0.91
2023-03-03T02:25:31.044Z,1.00
2023-03-03T02:30:38.386Z,1.06
2023-03-03T02:35:41.855Z,1.21
2023-03-03T02:40:58.918Z,1.35
2023-03-03T02:46:02.381Z,1.34
2023-03-03T02:51:04.251Z,1.37
2023-03-03T02:56:07.298Z,1.31
2023-03-03T03:01:09.006Z,1.36
2023-03-03T03:06:11.981Z,1.48
2023-03-03T03:11:14.105Z,1.42
2023-03-03T03:16:15.966Z,1.62
2023-03-03T03:21:17.946Z,1.57
2023-03-03T03:26:21.097Z,1.63
2023-03-03T03:31:25.777Z,1.67
2023-03-03T03:36:28.326Z,1.63
2023-03-03T03:41:30.459Z,1.71
2023-03-03T03:46:32.151Z,1.82
2023-03-03T03:51:35.613Z,1.69
2023-03-03T03:56:38.236Z,1.80
2023-03-03T04:01:40.572Z,1.92
2023-03-03T04:06:42.239Z,1.84
2023-03-03T04:11:43.971Z,1.80
2023-03-03T04:16:47.435Z,1.75
2023-03-03T04:21:49.284Z,1.83
2023-03-03T04:26:51.662Z,1.96
2023-03-03T04:31:53.525Z,1.86
2023-03-03T04:36:55.869Z,1.84
2023-03-03T04:41:57.585Z,1.77
2023-03-03T04:46:59.578Z,1.88
2023-03-03T04:52:02.130Z,2.09
2023-03-03T04:57:04.266Z,1.85
2023-03-03T05:02:07.573Z,1.98
2023-03-03T05:07:09.747Z,2.17
2023-03-03T05:12:11.397Z,2.03
2023-03-03T05:17:12.931Z,2.17
2023-03-03T05:22:14.529Z,2.01
2023-03-03T05:27:17.177Z,1.95
2023-03-03T05:32:18.773Z,2.09
2023-03-03T05:37:20.295Z,2.05
2023-03-03T05:42:22.101Z,1.93
2023-03-03T05:47:23.691Z,1.93
2023-03-03T05:52:25.305Z,2.03
2023-03-03T05:57:26.849Z,2.27
2023-03-03T06:02:28.360Z,2.15
2023-03-03T06:07:30.143Z,2.17
2023-03-03T06:12:31.909Z,2.28
2023-03-03T06:17:33.507Z,2.16
2023-03-03T06:22:35.518Z,1.91
2023-03-03T06:27:37.282Z,1.99
2023-03-03T06:32:38.982Z,2.27
2023-03-03T06:37:40.735Z,2.20
2023-03-03T06:42:42.550Z,2.42
2023-03-03T06:47:44.144Z,2.42
2023-03-03T06:52:45.739Z,2.19
2023-03-03T06:57:47.350Z,2.32
2023-03-03T07:02:57.949Z,1.95
2023-03-03T07:07:59.690Z,2.06
2023-03-03T07:13:24.164Z,2.17
2023-03-03T07:18:57.173Z,2.36
2023-03-03T07:24:01.327Z,2.27
2023-03-03T07:29:26.473Z,2.61
2023-03-03T07:34:40.523Z,2.43
2023-03-03T07:39:45.608Z,2.41
2023-03-03T07:44:48.849Z,2.41
2023-03-03T07:49:52.367Z,2.80
2023-03-03T07:54:56.529Z,2.62
2023-03-03T08:00:16.849Z,2.70
2023-03-03T08:05:30.164Z,2.38
2023-03-03T08:10:42.551Z,2.57
2023-03-03T08:15:49.113Z,2.87
2023-03-03T08:20:56.318Z,2.50
2023-03-03T08:25:57.989Z,2.51
2023-03-03T08:31:14.384Z,2.47
2023-03-03T08:36:19.787Z,2.88
2023-03-03T08:41:21.553Z,2.67
2023-03-03T08:46:23.274Z,2.96
2023-03-03T08:51:31.115Z,2.96
2023-03-03T08:56:35.460Z,2.97
2023-03-03T09:01:37.041Z,3.06
2023-03-03T09:06:39.276Z,3.20
2023-03-03T09:11:40.904Z,3.30
2023-03-03T09:16:50.879Z,3.35
2023-03-03T09:21:55.044Z,3.69
2023-03-03T09:27:00.050Z,3.34
2023-03-03T09:32:21.255Z,2.78
2023-03-03T09:37:24.157Z,3.00
2023-03-03T09:42:43.037Z,3.45
2023-03-03T09:48:12.364Z,3.86
2023-03-03T09:53:41.877Z,4.53
2023-03-03T09:59:12.402Z,4.02
2023-03-03T10:04:38.434Z,4.55
2023-03-03T10:09:54.738Z,5.00
2023-03-03T10:15:15.122Z,4.55
2023-03-03T10:20:48.995Z,4.68
2023-03-03T10:26:09.954Z,4.98
2023-03-03T10:31:29.611Z,4.57
2023-03-03T10:36:40.080Z,4.75
2023-03-03T10:42:12.689Z,4.54
2023-03-03T10:47:24.251Z,4.52
2023-03-03T10:52:37.670Z,5.22
2023-03-03T10:58:01.377Z,5.41
2023-03-03T11:03:25.212Z,5.45
2023-03-03T11:08:51.943Z,4.78
2023-03-03T11:13:59.947Z,6.30
2023-03-03T11:19:30.201Z,6.48
2023-03-03T11:25:01.494Z,7.28
2023-03-03T11:30:25.470Z,8.08
2023-03-03T11:35:35.721Z,7.65
2023-03-03T11:41:03.762Z,8.02
2023-03-03T11:46:37.675Z,9.03
2023-03-03T11:52:03.068Z,9.49
2023-03-03T11:57:28.042Z,8.60
2023-03-03T12:02:45.232Z,9.55
2023-03-03T12:08:15.356Z,7.77
2023-03-03T12:13:50.679Z,8.97
2023-03-03T12:19:11.353Z,10.26
2023-03-03T12:24:27.638Z,9.00
2023-03-03T12:29:51.156Z,9.91
2023-03-03T12:35:03.197Z,11.29
2023-03-03T12:40:16.064Z,10.51
2023-03-03T12:45:39.426Z,10.30
2023-03-03T12:51:09.363Z,11.71
2023-03-03T12:56:24.001Z,11.04
2023-03-03T13:01:52.545Z,10.36
2023-03-03T13:07:10.893Z,9.89
2023-03-03T13:12:35.319Z,10.53
2023-03-03T13:17:49.444Z,10.52
2023-03-03T13:23:17.757Z,10.90
2023-03-03T13:28:36.016Z,9.84
2023-03-03T13:33:37.635Z,8.68
2023-03-03T13:38:48.459Z,8.72
2023-03-03T13:43:57.397Z,8.04
2023-03-03T13:49:06.397Z,9.14
2023-03-03T13:54:32.596Z,9.31
2023-03-03T14:00:12.036Z,9.80
2023-03-03T14:05:27.498Z,8.91
2023-03-03T14:10:49.051Z,9.07
2023-03-03T14:16:13.433Z,8.37
2023-03-03T14:21:24.600Z,7.85
2023-03-03T14:26:26.218Z,8.06
2023-03-03T14:31:40.307Z,7.73
2023-03-03T14:36:47.221Z,7.76
2023-03-03T14:41:49.899Z,7.33
2023-03-03T14:47:20.262Z,7.38
2023-03-03T14:52:25.417Z,7.59
2023-03-03T14:57:40.960Z,7.63
2023-03-03T15:02:43.678Z,7.19
2023-03-03T15:07:48.841Z,7.37
2023-03-03T15:12:53.207Z,7.60
2023-03-03T15:18:08.374Z,7.28
2023-03-03T15:23:44.110Z,7.37
2023-03-03T15:29:07.843Z,7.70
2023-03-03T15:34:34.261Z,7.57
2023-03-03T15:39:49.880Z,7.46
2023-03-03T15:45:19.170Z,7.77
2023-03-03T15:50:44.487Z,7.68
2023-03-03T15:56:09.501Z,7.45
2023-03-03T16:01:32.233Z,7.36
2023-03-03T16:06:54.749Z,7.17
2023-03-03T16:12:05.089Z,7.35
2023-03-03T16:17:20.899Z,7.08
2023-03-03T16:22:47.813Z,7.29
2023-03-03T16:28:11.550Z,7.19
2023-03-03T16:33:21.349Z,7.21
2023-03-03T16:38:32.461Z,7.15
2023-03-03T16:43:50.406Z,7.63
2023-03-03T16:49:16.766Z,7.14
2023-03-03T16:54:37.342Z,7.21
2023-03-03T17:00:04.578Z,7.15
2023-03-03T17:05:21.924Z,7.06
2023-03-03T17:10:27.899Z,6.78
2023-03-03T17:15:47.484Z,6.67
2023-03-03T17:20:51.732Z,6.87
2023-03-03T17:25:58.937Z,6.94
2023-03-03T17:31:12.771Z,6.98
2023-03-03T17:36:54.227Z,6.86
2023-03-03T17:42:11.348Z,6.94
2023-03-03T17:47:25.240Z,6.80
2023-03-03T17:52:57.891Z,6.88
2023-03-03T17:58:18.616Z,6.69
2023-03-03T18:03:23.046Z,6.61
2023-03-03T18:09:14.458Z,6.51
2023-03-03T18:14:42.575Z,6.40
2023-03-03T18:19:59.433Z,6.39
2023-03-03T18:25:09.934Z,6.35
2023-03-03T18:30:17.587Z,6.49
2023-03-03T18:35:23.909Z,6.39
2023-03-03T18:40:33.036Z,6.39
2023-03-03T18:45:34.543Z,6.37
2023-03-03T18:50:41.062Z,6.18
2023-03-03T18:55:49.608Z,6.19
2023-03-03T19:00:54.433Z,6.29
2023-03-03T19:06:00.210Z,6.38
2023-03-03T19:11:03.569Z,6.02
2023-03-03T19:16:36.684Z,6.35
2023-03-03T19:21:39.701Z,6.26
2023-03-03T19:27:02.787Z,5.88
2023-03-03T19:32:44.040Z,6.09
2023-03-03T19:37:57.623Z,6.03
2023-03-03T19:43:08.292Z,6.10
2023-03-03T19:48:18.907Z,6.07
2023-03-03T19:53:34.565Z,5.68
2023-03-03T19:58:59.480Z,5.82
2023-03-03T20:04:30.278Z,5.85
2023-03-03T20:09:45.065Z,5.64
2023-03-03T20:15:09.682Z,5.96
2023-03-03T20:20:31.348Z,5.94
2023-03-03T20:25:56.555Z,5.85
2023-03-03T20:31:10.435Z,6.06
2023-03-03T20:36:24.033Z,5.83
2023-03-03T20:42:16.762Z,5.93
2023-03-03T20:47:43.232Z,6.10
2023-03-03T20:53:19.688Z,6.18
2023-03-03T20:58:34.182Z,5.84
2023-03-03T21:03:39.178Z,5.99
2023-03-03T21:08:53.536Z,6.05
2023-03-03T21:13:55.170Z,5.70
2023-03-03T21:19:11.738Z,6.02
2023-03-03T21:24:19.539Z,6.02
2023-03-03T21:29:32.954Z,5.92
2023-03-03T21:34:40.368Z,5.95
2023-03-03T21:39:46.925Z,6.17
2023-03-03T21:44:50.202Z,5.77
2023-03-03T21:49:54.237Z,6.04
2023-03-03T21:54:55.848Z,6.19
2023-03-03T21:59:57.381Z,5.90
2023-03-03T22:04:59.538Z,6.10
2023-03-03T22:10:01.166Z,5.88
2023-03-03T22:15:02.745Z,6.00
2023-03-03T22:20:04.912Z,5.93
2023-03-03T22:25:07.307Z,5.95
2023-03-03T22:30:09.386Z,5.76
2023-03-03T22:35:11.006Z,5.84
2023-03-03T22:40:12.839Z,6.03
2023-03-03T22:45:14.882Z,6.26
2023-03-03T22:50:17.533Z,6.25
2023-03-03T22:55:19.221Z,6.29
2023-03-03T23:00:21.550Z,5.98
2023-03-03T23:05:23.635Z,5.71
2023-03-03T23:10:25.632Z,6.01
2023-03-03T23:15:27.260Z,5.74
2023-03-03T23:20:30.805Z,5.86
2023-03-03T23:25:32.605Z,6.09
2023-03-03T23:30:34.208Z,5.89
2023-03-03T23:35:35.954Z,5.84
2023-03-03T23:40:37.735Z,5.85
2023-03-03T23:45:39.382Z,5.79
2023-03-03T23:50:41.029Z,5.59
2023-03-03T23:55:43.402Z,5.76
